createdAt,value
2018-06-21T00:01:50.513Z,14.93
2018-06-21T00:06:53.798Z,10.83
2018-06-21T00:11:57.101Z,9.00
2018-06-21T00:17:00.369Z,11.40
2018-06-21T00:22:03.651Z,11.47
2018-06-21T00:27:06.750Z,11.10
2018-06-21T00:32:10.221Z,12.87
2018-06-21T00:37:13.517Z,11.73
2018-06-21T00:42:16.570Z,10.97
2018-06-21T00:47:19.621Z,12.30
2018-06-21T00:52:22.637Z,10.37
2018-06-21T00:57:25.695Z,15.53
2018-06-21T01:02:28.862Z,15.57
2018-06-21T01:07:32.196Z,13.67
2018-06-21T01:12:35.259Z,9.97
2018-06-21T01:17:38.244Z,11.90
2018-06-21T01:27:54.910Z,9.17
2018-06-21T01:32:57.981Z,10.60
2018-06-21T01:38:01.018Z,11.70
2018-06-21T01:43:04.265Z,20.53
2018-06-21T01:48:07.413Z,13.33
2018-06-21T01:53:10.418Z,8.90
2018-06-21T01:58:13.418Z,11.17
2018-06-21T02:03:16.446Z,10.73
2018-06-21T02:08:19.486Z,13.03
2018-06-21T02:13:22.516Z,11.57
2018-06-21T02:18:25.541Z,11.77
2018-06-21T02:23:28.556Z,14.00
2018-06-21T02:28:31.615Z,14.30
2018-06-21T02:33:34.682Z,14.33
2018-06-21T02:38:37.795Z,16.47
2018-06-21T02:43:40.806Z,13.40
2018-06-21T02:48:43.922Z,13.07
2018-06-21T02:53:46.977Z,12.10
2018-06-21T02:58:50.006Z,16.33
2018-06-21T03:03:53.606Z,14.30
2018-06-21T03:08:56.551Z,12.93
2018-06-21T03:13:59.602Z,12.60
2018-06-21T03:19:02.744Z,14.63
2018-06-21T03:24:05.802Z,11.20
2018-06-21T03:29:08.845Z,16.20
2018-06-21T03:34:11.874Z,12.87
2018-06-21T03:39:14.885Z,13.60
2018-06-21T03:44:17.906Z,13.33
2018-06-21T03:49:20.913Z,12.07
2018-06-21T03:54:24.233Z,12.10
2018-06-21T03:59:27.262Z,11.97
2018-06-21T04:04:30.330Z,14.13
2018-06-21T04:09:33.429Z,12.43
2018-06-21T04:14:36.453Z,12.70
2018-06-21T04:19:39.482Z,9.70
2018-06-21T04:24:42.497Z,10.60
2018-06-21T04:29:45.017Z,12.10
2018-06-21T04:34:48.479Z,12.60
2018-06-21T04:39:52.065Z,11.17
2018-06-21T04:44:55.201Z,11.83
2018-06-21T04:49:58.299Z,9.37
2018-06-21T04:55:01.793Z,12.97
2018-06-21T05:00:05.011Z,12.33
2018-06-21T05:05:08.138Z,10.63
2018-06-21T05:10:11.185Z,10.97
2018-06-21T05:15:14.197Z,9.67
2018-06-21T05:20:17.314Z,12.37
2018-06-21T05:25:20.410Z,10.90
2018-06-21T05:30:25.246Z,11.87
2018-06-21T05:35:28.321Z,10.23
2018-06-21T05:40:35.655Z,10.07
2018-06-21T05:45:38.710Z,12.10
2018-06-21T05:50:41.770Z,10.70
2018-06-21T05:55:44.846Z,16.70
2018-06-21T06:00:47.967Z,12.70
2018-06-21T06:05:50.975Z,16.10
2018-06-21T06:10:54.146Z,17.70
2018-06-21T06:15:57.201Z,20.40
2018-06-21T06:21:01.390Z,28.60
2018-06-21T06:26:04.566Z,21.60
2018-06-21T06:31:07.613Z,13.30
2018-06-21T06:36:10.669Z,4.87
2018-06-21T06:41:13.846Z,2.27
2018-06-21T06:46:17.004Z,3.47
2018-06-21T06:51:21.089Z,2.67
2018-06-21T06:56:24.150Z,2.73
2018-06-21T07:01:27.210Z,2.37
2018-06-21T07:06:30.292Z,4.53
2018-06-21T07:11:33.553Z,18.37
2018-06-21T07:16:36.598Z,3.10
2018-06-21T07:21:40.046Z,7.50
2018-06-21T07:26:43.265Z,3.10
2018-06-21T07:31:46.311Z,2.70
2018-06-21T07:36:49.402Z,4.13
2018-06-21T07:41:52.507Z,3.60
2018-06-21T07:46:55.581Z,4.67
2018-06-21T07:51:58.817Z,4.33
2018-06-21T07:57:01.903Z,3.37
2018-06-21T08:02:05.159Z,8.33
2018-06-21T08:07:08.442Z,7.83
2018-06-21T08:12:11.546Z,4.77
2018-06-21T08:17:14.734Z,6.50
2018-06-21T08:22:17.930Z,9.57
2018-06-21T08:27:21.226Z,12.97
2018-06-21T08:32:24.285Z,5.10
2018-06-21T08:37:27.372Z,6.60
2018-06-21T08:42:30.594Z,7.33
2018-06-21T08:47:33.675Z,7.53
2018-06-21T08:52:36.712Z,4.87
2018-06-21T08:57:39.797Z,6.57
2018-06-21T09:02:42.818Z,5.03
2018-06-21T09:07:45.885Z,6.10
2018-06-21T09:12:49.502Z,6.67
2018-06-21T09:17:52.660Z,4.30
2018-06-21T09:22:55.679Z,4.33
2018-06-21T09:27:58.714Z,3.83
2018-06-21T09:33:01.759Z,7.50
2018-06-21T09:38:14.012Z,2.43
2018-06-21T09:43:22.820Z,7.93
2018-06-21T09:48:29.398Z,3.83
2018-06-21T09:53:32.482Z,6.00
2018-06-21T09:58:35.548Z,4.63
2018-06-21T10:03:38.693Z,7.90
2018-06-21T10:08:41.726Z,2.60
2018-06-21T10:13:44.735Z,4.10
2018-06-21T10:18:47.889Z,1.80
2018-06-21T10:23:50.861Z,2.87
2018-06-21T10:28:53.892Z,4.00
2018-06-21T10:33:56.905Z,1.87
2018-06-21T10:39:00.028Z,5.50
2018-06-21T10:44:03.133Z,3.37
2018-06-21T10:49:06.252Z,6.90
2018-06-21T10:54:09.258Z,4.10
2018-06-21T10:59:12.316Z,3.03
2018-06-21T11:04:15.334Z,3.73
2018-06-21T11:09:18.366Z,2.10
2018-06-21T11:14:21.365Z,4.40
2018-06-21T11:19:24.470Z,6.90
2018-06-21T11:24:27.777Z,7.03
2018-06-21T11:29:30.820Z,4.63
2018-06-21T11:34:33.874Z,7.93
2018-06-21T11:39:37.014Z,3.57
2018-06-21T11:44:40.062Z,9.60
2018-06-21T11:49:43.106Z,2.50
2018-06-21T11:54:46.137Z,4.87
2018-06-21T11:59:49.695Z,6.90
2018-06-21T12:04:53.238Z,1.47
2018-06-21T12:09:56.288Z,4.17
2018-06-21T12:14:59.329Z,2.93
2018-06-21T12:20:02.373Z,5.00
2018-06-21T12:25:05.498Z,4.53
2018-06-21T12:30:08.543Z,1.53
2018-06-21T12:35:11.605Z,3.17
2018-06-21T12:40:14.649Z,1.00
2018-06-21T12:45:17.645Z,2.63
2018-06-21T12:50:20.765Z,4.57
2018-06-21T12:55:23.790Z,6.90
2018-06-21T13:00:27.073Z,12.83
2018-06-21T13:05:30.126Z,10.50
2018-06-21T13:10:50.375Z,1.50
2018-06-21T13:15:53.421Z,7.33
2018-06-21T13:20:56.427Z,4.93
2018-06-21T13:25:59.441Z,1.60
2018-06-21T13:31:02.560Z,4.70
2018-06-21T13:36:05.683Z,5.40
2018-06-21T13:41:08.726Z,2.80
2018-06-21T13:46:11.787Z,9.63
2018-06-21T13:51:14.888Z,6.83
2018-06-21T13:56:17.965Z,2.23
2018-06-21T14:01:21.041Z,4.97
2018-06-21T14:06:24.026Z,7.30
2018-06-21T14:11:27.177Z,5.43
2018-06-21T14:16:30.306Z,6.67
2018-06-21T14:21:33.609Z,5.63
2018-06-21T14:26:37.241Z,13.40
2018-06-21T14:31:40.273Z,4.07
2018-06-21T14:36:43.256Z,2.53
2018-06-21T14:41:46.389Z,3.80
2018-06-21T14:46:49.426Z,9.33
2018-06-21T14:51:52.461Z,1.27
2018-06-21T14:56:55.511Z,5.50
2018-06-21T15:01:58.808Z,2.50
2018-06-21T15:07:01.855Z,6.83
2018-06-21T15:12:05.051Z,5.07
2018-06-21T15:17:08.089Z,0.60
2018-06-21T15:22:11.093Z,2.20
2018-06-21T15:27:14.133Z,3.43
2018-06-21T15:32:17.385Z,1.23
2018-06-21T15:37:20.664Z,2.40
2018-06-21T15:42:23.726Z,1.40
2018-06-21T15:47:26.814Z,2.00
2018-06-21T15:52:29.907Z,10.60
2018-06-21T15:57:33.061Z,0.60
2018-06-21T16:02:36.156Z,1.17
2018-06-21T16:07:39.185Z,2.20
2018-06-21T16:12:42.233Z,2.97
2018-06-21T16:17:45.261Z,2.70
2018-06-21T16:22:48.420Z,4.23
2018-06-21T16:27:51.463Z,2.10
2018-06-21T16:32:54.536Z,1.53
2018-06-21T16:37:57.632Z,1.70
2018-06-21T16:43:00.872Z,7.80
2018-06-21T16:48:04.090Z,3.07
2018-06-21T16:53:07.117Z,6.57
2018-06-21T16:58:10.173Z,2.20
2018-06-21T17:03:13.228Z,2.50
2018-06-21T17:08:16.305Z,4.63
2018-06-21T17:13:19.348Z,2.03
2018-06-21T17:18:22.433Z,4.90
2018-06-21T17:23:25.484Z,1.20
2018-06-21T17:28:28.581Z,2.03
2018-06-21T17:33:31.720Z,1.20
2018-06-21T17:38:34.774Z,1.60
2018-06-21T17:43:38.217Z,2.40
2018-06-21T17:48:41.277Z,1.77
2018-06-21T17:53:44.597Z,1.50
2018-06-21T17:58:47.626Z,1.83
2018-06-21T18:03:50.730Z,0.90
2018-06-21T18:08:53.844Z,2.70
2018-06-21T18:13:56.918Z,9.80
2018-06-21T18:19:00.012Z,4.40
2018-06-21T18:24:03.160Z,2.30
2018-06-21T18:29:06.274Z,3.17
2018-06-21T18:34:09.368Z,4.83
2018-06-21T18:39:12.824Z,4.93
2018-06-21T18:44:15.978Z,1.10
2018-06-21T18:49:19.060Z,4.83
2018-06-21T18:54:22.149Z,4.10
2018-06-21T18:59:25.286Z,4.83
2018-06-21T19:04:29.232Z,11.03
2018-06-21T19:09:38.181Z,1.60
2018-06-21T19:14:41.264Z,2.63
2018-06-21T19:19:44.622Z,2.23
2018-06-21T19:24:47.694Z,5.70
2018-06-21T19:29:50.851Z,6.00
2018-06-21T19:34:55.264Z,0.67
2018-06-21T19:39:58.506Z,7.60
2018-06-21T19:45:01.789Z,1.30
2018-06-21T19:50:05.269Z,2.53
2018-06-21T19:55:08.387Z,1.17
2018-06-21T20:00:11.567Z,3.33
2018-06-21T20:05:14.624Z,4.90
2018-06-21T20:10:17.737Z,3.40
2018-06-21T20:15:20.830Z,7.20
2018-06-21T20:20:29.582Z,4.83
2018-06-21T20:25:33.533Z,10.60
2018-06-21T20:30:36.591Z,2.83
2018-06-21T20:35:39.639Z,0.67
2018-06-21T20:40:42.876Z,5.03
2018-06-21T20:45:45.923Z,10.10
2018-06-21T20:50:49.208Z,3.67
2018-06-21T20:55:52.334Z,3.37
2018-06-21T21:00:55.494Z,2.17
2018-06-21T21:05:58.992Z,3.43
2018-06-21T21:11:02.071Z,4.27
2018-06-21T21:16:05.323Z,3.83
2018-06-21T21:21:09.476Z,3.90
2018-06-21T21:26:12.595Z,2.27
2018-06-21T21:31:15.683Z,2.60
2018-06-21T21:36:18.637Z,3.07
2018-06-21T21:41:21.706Z,3.73
2018-06-21T21:46:24.715Z,7.17
2018-06-21T21:51:27.791Z,2.60
2018-06-21T21:56:30.807Z,3.60
2018-06-21T22:01:33.822Z,4.97
2018-06-21T22:06:36.912Z,2.13
2018-06-21T22:11:39.934Z,3.03
2018-06-21T22:16:43.014Z,18.97
2018-06-21T22:21:46.050Z,9.20
2018-06-21T22:26:49.082Z,4.13
2018-06-21T22:31:52.145Z,14.20
2018-06-21T22:36:55.213Z,3.47
2018-06-21T22:41:58.258Z,2.70
2018-06-21T22:47:02.737Z,7.30
2018-06-21T22:52:05.943Z,7.13
2018-06-21T22:57:09.041Z,7.33
2018-06-21T23:02:12.082Z,1.57
2018-06-21T23:07:15.090Z,2.70
2018-06-21T23:12:18.081Z,7.20
2018-06-21T23:17:22.278Z,2.60
2018-06-21T23:22:25.337Z,5.90
2018-06-21T23:27:28.385Z,5.37
2018-06-21T23:32:31.391Z,7.47
2018-06-21T23:37:34.386Z,7.00
2018-06-21T23:42:37.493Z,2.37
2018-06-21T23:47:40.550Z,8.77
2018-06-21T23:52:43.594Z,6.50
2018-06-21T23:57:46.611Z,4.50
